createdAt,value
2023-06-29T00:03:07.736Z,100.00
2023-06-29T00:08:10.916Z,100.00
2023-06-29T00:13:12.732Z,100.00
2023-06-29T00:18:19.680Z,100.00
2023-06-29T00:23:21.409Z,100.00
2023-06-29T00:28:23.245Z,100.00
2023-06-29T00:33:25.212Z,100.00
2023-06-29T00:38:27.392Z,100.00
2023-06-29T00:43:29.480Z,100.00
2023-06-29T00:48:31.456Z,100.00
2023-06-29T00:53:33.640Z,100.00
2023-06-29T00:58:36.335Z,100.00
2023-06-29T01:03:39.318Z,100.00
2023-06-29T01:08:46.781Z,100.00
2023-06-29T01:13:51.735Z,100.00
2023-06-29T01:18:55.951Z,100.00
2023-06-29T01:23:59.757Z,100.00
2023-06-29T01:29:01.631Z,100.00
2023-06-29T01:34:03.361Z,100.00
2023-06-29T01:39:16.746Z,100.00
2023-06-29T01:44:19.650Z,100.00
2023-06-29T01:49:21.729Z,100.00
2023-06-29T01:54:23.609Z,100.00
2023-06-29T01:59:26.097Z,100.00
2023-06-29T02:04:28.189Z,100.00
2023-06-29T02:09:30.362Z,100.00
2023-06-29T02:14:32.139Z,100.00
2023-06-29T02:19:33.954Z,100.00
2023-06-29T02:24:35.918Z,100.00
2023-06-29T02:29:38.204Z,100.00
2023-06-29T02:34:40.200Z,100.00
2023-06-29T02:39:42.145Z,100.00
2023-06-29T02:44:44.220Z,100.00
2023-06-29T02:49:46.096Z,100.00
2023-06-29T02:54:48.083Z,100.00
2023-06-29T02:59:49.852Z,100.00
2023-06-29T03:04:52.135Z,100.00
2023-06-29T03:09:53.929Z,100.00
2023-06-29T03:14:55.682Z,100.00
2023-06-29T03:19:57.673Z,100.00
2023-06-29T03:24:59.542Z,100.00
2023-06-29T03:30:01.453Z,100.00
2023-06-29T03:35:04.734Z,100.00
2023-06-29T03:40:08.045Z,100.00
2023-06-29T03:45:10.549Z,100.00
2023-06-29T03:50:12.556Z,100.00
2023-06-29T03:55:14.703Z,98.33
2023-06-29T04:00:17.293Z,94.00
2023-06-29T04:05:19.168Z,91.29
2023-06-29T04:10:21.366Z,90.42
2023-06-29T04:15:23.336Z,90.33
2023-06-29T04:20:25.421Z,91.40
2023-06-29T04:25:27.500Z,90.43
2023-06-29T04:30:29.382Z,87.79
2023-06-29T04:35:31.557Z,84.56
2023-06-29T04:40:33.436Z,82.58
2023-06-29T04:45:35.822Z,77.85
2023-06-29T04:50:38.422Z,73.79
2023-06-29T04:55:40.397Z,69.40
2023-06-29T05:00:42.271Z,65.53
2023-06-29T05:05:45.499Z,62.00
2023-06-29T05:10:47.668Z,59.24
2023-06-29T05:15:49.544Z,56.70
2023-06-29T05:20:51.274Z,54.60
2023-06-29T05:25:53.206Z,52.72
2023-06-29T05:30:55.073Z,50.79
2023-06-29T05:35:56.969Z,49.45
2023-06-29T05:41:01.444Z,48.00
2023-06-29T05:46:04.954Z,48.11
2023-06-29T05:51:07.595Z,46.45
2023-06-29T05:56:09.881Z,45.23
2023-06-29T06:01:12.578Z,43.34
2023-06-29T06:06:14.869Z,43.72
2023-06-29T06:11:16.746Z,45.53
2023-06-29T06:16:19.693Z,46.94
2023-06-29T06:21:21.731Z,45.45
2023-06-29T06:26:23.627Z,43.73
2023-06-29T06:31:33.635Z,42.45
2023-06-29T06:36:37.188Z,42.14
2023-06-29T06:41:39.224Z,41.85
2023-06-29T06:46:41.322Z,39.75
2023-06-29T06:51:43.740Z,39.09
2023-06-29T06:56:45.714Z,37.74
2023-06-29T07:01:48.316Z,37.09
2023-06-29T07:06:50.227Z,35.05
2023-06-29T07:11:52.274Z,34.86
2023-06-29T07:16:55.729Z,34.45
2023-06-29T07:27:02.692Z,32.31
2023-06-29T07:32:05.635Z,32.22
2023-06-29T07:37:08.207Z,31.25
2023-06-29T07:42:10.107Z,29.61
2023-06-29T07:47:12.102Z,28.16
2023-06-29T07:52:14.251Z,28.84
2023-06-29T08:02:21.693Z,28.36
2023-06-29T08:07:24.074Z,28.04
2023-06-29T08:12:26.066Z,27.43
2023-06-29T08:17:30.826Z,27.66
2023-06-29T08:22:32.788Z,27.24
2023-06-29T08:27:36.408Z,26.76
2023-06-29T08:32:38.420Z,27.19
2023-06-29T08:37:40.688Z,26.66
2023-06-29T08:42:43.165Z,26.79
2023-06-29T08:47:51.895Z,26.73
2023-06-29T08:52:55.468Z,26.72
2023-06-29T08:57:57.833Z,25.94
2023-06-29T09:03:00.638Z,25.89
2023-06-29T09:08:03.501Z,27.63
2023-06-29T09:13:06.939Z,28.85
2023-06-29T09:18:09.147Z,28.47
2023-06-29T09:23:13.654Z,28.56
2023-06-29T09:28:15.831Z,27.90
2023-06-29T09:33:19.298Z,27.29
2023-06-29T09:38:21.119Z,28.10
2023-06-29T09:43:28.480Z,30.94
2023-06-29T09:53:37.810Z,35.48
2023-06-29T09:58:40.509Z,36.21
2023-06-29T10:03:42.706Z,38.07
2023-06-29T10:08:50.914Z,39.41
2023-06-29T10:13:55.254Z,38.71
2023-06-29T10:19:04.355Z,38.06
2023-06-29T10:24:07.378Z,37.07
2023-06-29T10:29:10.225Z,38.26
2023-06-29T10:34:14.031Z,40.58
2023-06-29T10:39:41.307Z,41.93
2023-06-29T10:44:47.524Z,42.24
2023-06-29T10:49:57.141Z,42.81
2023-06-29T10:55:13.555Z,42.85
2023-06-29T11:00:16.755Z,43.47
2023-06-29T11:05:20.624Z,44.29
2023-06-29T11:10:23.284Z,44.04
2023-06-29T11:15:28.131Z,43.04
2023-06-29T11:20:30.721Z,43.10
2023-06-29T11:25:33.249Z,41.89
2023-06-29T11:30:40.336Z,41.06
2023-06-29T11:35:44.089Z,41.87
2023-06-29T11:40:46.015Z,42.01
2023-06-29T11:45:49.629Z,42.03
2023-06-29T11:50:51.824Z,40.93
2023-06-29T11:55:55.342Z,40.58
2023-06-29T12:00:57.598Z,41.48
2023-06-29T12:06:01.347Z,40.54
2023-06-29T12:11:04.306Z,41.02
2023-06-29T12:21:18.126Z,40.76
2023-06-29T12:26:21.951Z,40.42
2023-06-29T12:31:30.331Z,40.71
2023-06-29T12:36:33.896Z,41.22
2023-06-29T12:41:36.116Z,42.14
2023-06-29T12:46:38.116Z,41.78
2023-06-29T12:51:40.251Z,41.95
2023-06-29T12:56:42.945Z,43.00
2023-06-29T13:01:45.245Z,43.39
2023-06-29T13:06:47.230Z,43.09
2023-06-29T13:11:49.195Z,43.17
2023-06-29T13:16:51.404Z,43.94
2023-06-29T13:21:56.774Z,44.26
2023-06-29T13:26:59.122Z,43.84
2023-06-29T13:32:01.102Z,43.98
2023-06-29T13:37:03.697Z,43.35
2023-06-29T13:42:10.586Z,42.53
2023-06-29T13:47:18.584Z,42.17
2023-06-29T13:52:20.486Z,42.25
2023-06-29T13:57:23.648Z,43.63
2023-06-29T14:02:28.652Z,44.21
2023-06-29T14:07:30.807Z,44.00
2023-06-29T14:12:33.939Z,44.90
2023-06-29T14:17:36.808Z,45.35
2023-06-29T14:22:39.671Z,45.99
2023-06-29T14:27:42.180Z,46.10
2023-06-29T14:32:44.648Z,46.84
2023-06-29T14:37:46.904Z,47.59
2023-06-29T14:42:48.893Z,47.61
2023-06-29T14:47:50.907Z,48.03
2023-06-29T14:52:52.951Z,49.39
2023-06-29T14:57:54.823Z,50.15
2023-06-29T15:02:56.634Z,50.14
2023-06-29T15:07:58.621Z,49.81
2023-06-29T15:13:00.667Z,49.19
2023-06-29T15:18:02.705Z,48.54
2023-06-29T15:23:04.624Z,48.95
2023-06-29T15:28:09.367Z,48.95
2023-06-29T15:33:11.504Z,49.21
2023-06-29T15:38:14.246Z,48.89
2023-06-29T15:43:18.709Z,49.33
2023-06-29T15:48:21.850Z,50.16
2023-06-29T15:53:24.395Z,50.95
2023-06-29T15:58:27.850Z,50.96
2023-06-29T16:03:29.994Z,51.27
2023-06-29T16:08:32.092Z,51.35
2023-06-29T16:13:34.079Z,50.81
2023-06-29T16:18:35.917Z,50.94
2023-06-29T16:23:38.621Z,50.88
2023-06-29T16:28:40.712Z,51.31
2023-06-29T16:33:43.605Z,51.28
2023-06-29T16:38:46.101Z,51.56
2023-06-29T16:43:53.127Z,51.68
2023-06-29T16:48:57.841Z,51.85
2023-06-29T16:53:59.817Z,51.12
2023-06-29T16:59:02.003Z,51.48
2023-06-29T17:04:04.285Z,51.39
2023-06-29T17:09:06.273Z,51.06
2023-06-29T17:14:08.253Z,51.11
2023-06-29T17:19:11.294Z,51.42
2023-06-29T17:24:13.332Z,50.90
2023-06-29T17:29:15.821Z,51.03
2023-06-29T17:34:18.410Z,51.49
2023-06-29T17:39:22.335Z,51.87
2023-06-29T17:44:24.484Z,52.30
2023-06-29T17:49:27.318Z,52.70
2023-06-29T17:54:29.617Z,53.20
2023-06-29T17:59:31.997Z,53.64
2023-06-29T18:04:34.139Z,54.03
2023-06-29T18:09:36.569Z,54.71
2023-06-29T18:14:38.857Z,55.61
2023-06-29T18:19:40.732Z,55.93
2023-06-29T18:24:42.718Z,56.60
2023-06-29T18:29:45.221Z,56.93
2023-06-29T18:34:48.107Z,57.34
2023-06-29T18:39:49.880Z,58.24
2023-06-29T18:44:53.086Z,59.18
2023-06-29T18:49:56.399Z,59.29
2023-06-29T18:55:01.673Z,59.92
2023-06-29T19:00:04.396Z,60.79
2023-06-29T19:05:08.432Z,61.61
2023-06-29T19:10:12.004Z,61.94
2023-06-29T19:15:14.912Z,62.25
2023-06-29T19:20:18.212Z,62.83
2023-06-29T19:25:20.193Z,63.87
2023-06-29T19:30:22.182Z,64.72
2023-06-29T19:35:24.979Z,65.27
2023-06-29T19:40:28.411Z,65.70
2023-06-29T19:45:31.354Z,66.30
2023-06-29T19:50:33.889Z,67.29
2023-06-29T19:55:36.275Z,68.34
2023-06-29T20:00:38.139Z,69.01
2023-06-29T20:05:41.435Z,69.84
2023-06-29T20:10:43.546Z,70.66
2023-06-29T20:15:46.554Z,71.47
2023-06-29T20:20:48.628Z,72.09
2023-06-29T20:25:51.940Z,73.42
2023-06-29T20:30:55.153Z,74.72
2023-06-29T20:35:58.058Z,75.35
2023-06-29T20:41:00.737Z,75.73
2023-06-29T20:46:03.197Z,76.43
2023-06-29T20:51:16.881Z,77.35
2023-06-29T20:56:21.117Z,78.02
2023-06-29T21:01:24.418Z,79.23
2023-06-29T21:06:26.920Z,79.58
2023-06-29T21:11:31.338Z,80.16
2023-06-29T21:16:34.886Z,80.66
2023-06-29T21:21:37.359Z,81.24
2023-06-29T21:26:39.359Z,82.05
2023-06-29T21:31:42.656Z,83.15
2023-06-29T21:36:45.042Z,84.03
2023-06-29T21:41:47.324Z,84.61
2023-06-29T21:46:49.618Z,85.09
2023-06-29T21:51:51.846Z,85.55
2023-06-29T21:56:54.552Z,85.91
2023-06-29T22:01:57.316Z,86.41
2023-06-29T22:07:11.676Z,87.25
2023-06-29T22:12:17.738Z,88.53
2023-06-29T22:17:20.438Z,89.65
2023-06-29T22:22:22.208Z,90.91
2023-06-29T22:27:23.882Z,91.07
2023-06-29T22:32:25.984Z,91.34
2023-06-29T22:37:28.148Z,91.46
2023-06-29T22:42:30.332Z,91.66
2023-06-29T22:47:32.461Z,92.22
2023-06-29T22:52:34.499Z,92.81
2023-06-29T22:57:36.479Z,93.56
2023-06-29T23:02:38.818Z,94.18
2023-06-29T23:07:44.119Z,95.06
2023-06-29T23:12:48.562Z,96.11
2023-06-29T23:17:50.376Z,96.91
2023-06-29T23:22:52.895Z,97.06
2023-06-29T23:27:54.901Z,97.15
2023-06-29T23:32:56.683Z,97.44
2023-06-29T23:37:58.863Z,97.80
2023-06-29T23:43:05.705Z,98.11
2023-06-29T23:48:07.794Z,98.53
2023-06-29T23:53:09.616Z,99.07
2023-06-29T23:58:11.394Z,98.99
